sensor_id;sensor_type;location;lat;lon;timestamp;P1;durP1;ratioP1;P2;durP2;ratioP2
64619;SDS011;51029;51.058;13.826;2023-03-01T00:01:14;27.40;;;19.63;;
64619;SDS011;51029;51.058;13.826;2023-03-01T00:03:41;26.67;;;19.03;;
64619;SDS011;51029;51.058;13.826;2023-03-01T00:06:07;27.57;;;20.00;;
64619;SDS011;51029;51.058;13.826;2023-03-01T00:08:34;26.67;;;20.27;;
64619;SDS011;51029;51.058;13.826;2023-03-01T00:11:04;25.80;;;19.43;;
64619;SDS011;51029;51.058;13.826;2023-03-01T00:13:30;27.70;;;19.40;;
64619;SDS011;51029;51.058;13.826;2023-03-01T00:15:55;24.47;;;18.03;;
64619;SDS011;51029;51.058;13.826;2023-03-01T00:18:21;25.90;;;18.40;;
64619;SDS011;51029;51.058;13.826;2023-03-01T00:20:51;25.83;;;18.57;;
64619;SDS011;51029;51.058;13.826;2023-03-01T00:23:17;25.20;;;19.03;;
64619;SDS011;51029;51.058;13.826;2023-03-01T00:25:43;25.87;;;19.23;;
64619;SDS011;51029;51.058;13.826;2023-03-01T00:28:08;24.47;;;18.60;;
64619;SDS011;51029;51.058;13.826;2023-03-01T00:30:34;27.17;;;20.03;;
64619;SDS011;51029;51.058;13.826;2023-03-01T00:32:59;25.10;;;18.27;;
64619;SDS011;51029;51.058;13.826;2023-03-01T00:35:25;22.40;;;17.33;;
64619;SDS011;51029;51.058;13.826;2023-03-01T00:37:50;25.37;;;19.20;;
64619;SDS011;51029;51.058;13.826;2023-03-01T00:40:23;22.70;;;17.37;;
64619;SDS011;51029;51.058;13.826;2023-03-01T00:42:49;27.43;;;18.03;;
64619;SDS011;51029;51.058;13.826;2023-03-01T00:45:15;25.33;;;18.57;;
64619;SDS011;51029;51.058;13.826;2023-03-01T00:47:41;24.40;;;18.50;;
64619;SDS011;51029;51.058;13.826;2023-03-01T00:50:07;24.73;;;19.17;;
64619;SDS011;51029;51.058;13.826;2023-03-01T00:52:33;24.07;;;17.97;;
64619;SDS011;51029;51.058;13.826;2023-03-01T00:54:59;23.43;;;18.53;;
64619;SDS011;51029;51.058;13.826;2023-03-01T00:57:25;25.50;;;18.30;;
64619;SDS011;51029;51.058;13.826;2023-03-01T00:59:50;24.47;;;18.83;;
64619;SDS011;51029;51.058;13.826;2023-03-01T01:02:17;24.57;;;18.57;;
64619;SDS011;51029;51.058;13.826;2023-03-01T01:04:44;25.17;;;19.67;;
64619;SDS011;51029;51.058;13.826;2023-03-01T01:07:10;26.37;;;19.37;;
64619;SDS011;51029;51.058;13.826;2023-03-01T01:09:35;26.33;;;18.77;;
64619;SDS011;51029;51.058;13.826;2023-03-01T01:12:01;26.80;;;19.43;;
64619;SDS011;51029;51.058;13.826;2023-03-01T01:14:27;26.67;;;19.63;;
64619;SDS011;51029;51.058;13.826;2023-03-01T01:16:52;26.30;;;19.67;;
64619;SDS011;51029;51.058;13.826;2023-03-01T01:19:18;23.93;;;18.47;;
64619;SDS011;51029;51.058;13.826;2023-03-01T01:21:43;26.80;;;19.33;;
64619;SDS011;51029;51.058;13.826;2023-03-01T01:24:09;28.37;;;18.73;;
64619;SDS011;51029;51.058;13.826;2023-03-01T01:26:36;26.83;;;19.60;;
64619;SDS011;51029;51.058;13.826;2023-03-01T01:29:03;26.47;;;19.23;;
64619;SDS011;51029;51.058;13.826;2023-03-01T01:31:29;27.47;;;19.70;;
64619;SDS011;51029;51.058;13.826;2023-03-01T01:33:55;23.70;;;17.80;;
64619;SDS011;51029;51.058;13.826;2023-03-01T01:36:22;25.50;;;19.43;;
64619;SDS011;51029;51.058;13.826;2023-03-01T01:38:48;26.00;;;19.47;;
64619;SDS011;51029;51.058;13.826;2023-03-01T01:41:14;27.40;;;18.50;;
64619;SDS011;51029;51.058;13.826;2023-03-01T01:43:43;25.80;;;17.97;;
64619;SDS011;51029;51.058;13.826;2023-03-01T01:46:30;24.90;;;18.77;;
64619;SDS011;51029;51.058;13.826;2023-03-01T01:48:57;26.80;;;18.77;;
64619;SDS011;51029;51.058;13.826;2023-03-01T01:51:42;24.37;;;17.00;;
64619;SDS011;51029;51.058;13.826;2023-03-01T01:54:16;26.50;;;18.30;;
64619;SDS011;51029;51.058;13.826;2023-03-01T01:56:48;24.43;;;17.37;;
64619;SDS011;51029;51.058;13.826;2023-03-01T01:59:18;22.50;;;17.23;;
64619;SDS011;51029;51.058;13.826;2023-03-01T02:01:47;22.37;;;17.83;;
64619;SDS011;51029;51.058;13.826;2023-03-01T02:04:12;23.70;;;16.97;;
64619;SDS011;51029;51.058;13.826;2023-03-01T02:06:43;26.87;;;17.87;;
64619;SDS011;51029;51.058;13.826;2023-03-01T02:09:15;23.43;;;17.53;;
64619;SDS011;51029;51.058;13.826;2023-03-01T02:11:45;25.67;;;18.87;;
64619;SDS011;51029;51.058;13.826;2023-03-01T02:14:11;26.53;;;18.20;;
64619;SDS011;51029;51.058;13.826;2023-03-01T02:16:37;25.30;;;18.27;;
64619;SDS011;51029;51.058;13.826;2023-03-01T02:19:03;25.30;;;17.60;;
64619;SDS011;51029;51.058;13.826;2023-03-01T02:21:36;25.50;;;18.23;;
64619;SDS011;51029;51.058;13.826;2023-03-01T02:26:57;26.63;;;18.80;;
64619;SDS011;51029;51.058;13.826;2023-03-01T02:29:23;25.93;;;17.67;;
64619;SDS011;51029;51.058;13.826;2023-03-01T02:31:50;24.90;;;19.13;;
64619;SDS011;51029;51.058;13.826;2023-03-01T02:34:18;24.73;;;17.97;;
64619;SDS011;51029;51.058;13.826;2023-03-01T02:36:47;26.20;;;17.80;;
64619;SDS011;51029;51.058;13.826;2023-03-01T02:39:17;54.27;;;33.33;;
64619;SDS011;51029;51.058;13.826;2023-03-01T02:41:52;28.73;;;21.37;;
64619;SDS011;51029;51.058;13.826;2023-03-01T02:44:20;23.77;;;18.33;;
64619;SDS011;51029;51.058;13.826;2023-03-01T02:46:47;25.17;;;18.07;;
64619;SDS011;51029;51.058;13.826;2023-03-01T02:49:19;25.20;;;17.83;;
64619;SDS011;51029;51.058;13.826;2023-03-01T02:55:02;22.87;;;17.13;;
64619;SDS011;51029;51.058;13.826;2023-03-01T02:57:34;26.93;;;17.87;;
64619;SDS011;51029;51.058;13.826;2023-03-01T03:00:04;24.33;;;16.67;;
64619;SDS011;51029;51.058;13.826;2023-03-01T03:02:33;23.00;;;17.10;;
64619;SDS011;51029;51.058;13.826;2023-03-01T03:05:04;22.23;;;16.80;;
64619;SDS011;51029;51.058;13.826;2023-03-01T03:07:38;26.60;;;18.33;;
64619;SDS011;51029;51.058;13.826;2023-03-01T03:10:07;23.63;;;18.23;;
64619;SDS011;51029;51.058;13.826;2023-03-01T03:12:36;23.10;;;16.27;;
64619;SDS011;51029;51.058;13.826;2023-03-01T03:15:02;24.37;;;17.17;;
64619;SDS011;51029;51.058;13.826;2023-03-01T03:17:33;22.57;;;16.90;;
64619;SDS011;51029;51.058;13.826;2023-03-01T03:20:03;24.20;;;17.17;;
64619;SDS011;51029;51.058;13.826;2023-03-01T03:22:30;24.37;;;17.03;;
64619;SDS011;51029;51.058;13.826;2023-03-01T03:24:58;22.50;;;17.70;;
64619;SDS011;51029;51.058;13.826;2023-03-01T03:27:24;23.87;;;18.23;;
64619;SDS011;51029;51.058;13.826;2023-03-01T03:29:50;23.97;;;17.40;;
64619;SDS011;51029;51.058;13.826;2023-03-01T03:32:15;24.23;;;17.70;;
64619;SDS011;51029;51.058;13.826;2023-03-01T03:34:41;24.57;;;17.37;;
64619;SDS011;51029;51.058;13.826;2023-03-01T03:37:06;24.10;;;17.80;;
64619;SDS011;51029;51.058;13.826;2023-03-01T03:39:52;24.47;;;17.73;;
64619;SDS011;51029;51.058;13.826;2023-03-01T03:42:19;28.10;;;17.07;;
64619;SDS011;51029;51.058;13.826;2023-03-01T03:44:46;24.10;;;17.27;;
64619;SDS011;51029;51.058;13.826;2023-03-01T03:47:12;27.00;;;18.47;;
64619;SDS011;51029;51.058;13.826;2023-03-01T03:49:37;24.57;;;18.30;;
64619;SDS011;51029;51.058;13.826;2023-03-01T03:52:03;24.23;;;17.27;;
64619;SDS011;51029;51.058;13.826;2023-03-01T03:54:28;23.13;;;16.97;;
64619;SDS011;51029;51.058;13.826;2023-03-01T03:56:54;25.67;;;17.90;;
64619;SDS011;51029;51.058;13.826;2023-03-01T03:59:19;23.27;;;17.87;;
64619;SDS011;51029;51.058;13.826;2023-03-01T04:01:45;25.33;;;17.93;;
64619;SDS011;51029;51.058;13.826;2023-03-01T04:04:10;23.30;;;16.50;;
64619;SDS011;51029;51.058;13.826;2023-03-01T04:06:36;24.73;;;17.23;;
64619;SDS011;51029;51.058;13.826;2023-03-01T04:09:01;28.77;;;17.53;;
64619;SDS011;51029;51.058;13.826;2023-03-01T04:11:27;26.30;;;18.50;;
64619;SDS011;51029;51.058;13.826;2023-03-01T04:13:54;23.23;;;17.40;;
64619;SDS011;51029;51.058;13.826;2023-03-01T04:16:21;25.73;;;18.03;;
64619;SDS011;51029;51.058;13.826;2023-03-01T04:18:47;24.77;;;18.23;;
64619;SDS011;51029;51.058;13.826;2023-03-01T04:21:13;25.07;;;17.03;;
64619;SDS011;51029;51.058;13.826;2023-03-01T04:23:39;27.23;;;17.83;;
64619;SDS011;51029;51.058;13.826;2023-03-01T04:26:05;22.70;;;17.53;;
64619;SDS011;51029;51.058;13.826;2023-03-01T04:28:33;23.67;;;17.63;;
64619;SDS011;51029;51.058;13.826;2023-03-01T04:31:11;25.40;;;18.30;;
64619;SDS011;51029;51.058;13.826;2023-03-01T04:33:42;26.20;;;18.73;;
64619;SDS011;51029;51.058;13.826;2023-03-01T04:36:19;25.67;;;17.43;;
64619;SDS011;51029;51.058;13.826;2023-03-01T04:38:47;25.27;;;16.73;;
64619;SDS011;51029;51.058;13.826;2023-03-01T04:41:13;26.40;;;18.33;;
64619;SDS011;51029;51.058;13.826;2023-03-01T04:43:40;23.30;;;16.73;;
64619;SDS011;51029;51.058;13.826;2023-03-01T04:46:07;25.90;;;18.57;;
64619;SDS011;51029;51.058;13.826;2023-03-01T04:48:34;23.77;;;19.00;;
64619;SDS011;51029;51.058;13.826;2023-03-01T04:51:02;27.50;;;19.17;;
64619;SDS011;51029;51.058;13.826;2023-03-01T04:53:28;25.13;;;18.20;;
64619;SDS011;51029;51.058;13.826;2023-03-01T04:55:55;25.03;;;18.43;;
64619;SDS011;51029;51.058;13.826;2023-03-01T04:58:24;26.80;;;19.93;;
64619;SDS011;51029;51.058;13.826;2023-03-01T05:00:52;23.73;;;17.93;;
64619;SDS011;51029;51.058;13.826;2023-03-01T05:03:18;26.97;;;19.83;;
64619;SDS011;51029;51.058;13.826;2023-03-01T05:05:45;24.03;;;19.20;;
64619;SDS011;51029;51.058;13.826;2023-03-01T05:08:13;29.23;;;19.50;;
64619;SDS011;51029;51.058;13.826;2023-03-01T05:10:46;24.80;;;18.43;;
64619;SDS011;51029;51.058;13.826;2023-03-01T05:13:14;26.40;;;19.33;;
64619;SDS011;51029;51.058;13.826;2023-03-01T05:15:46;27.27;;;18.57;;
64619;SDS011;51029;51.058;13.826;2023-03-01T05:18:13;27.43;;;19.20;;
64619;SDS011;51029;51.058;13.826;2023-03-01T05:20:39;25.67;;;19.23;;
64619;SDS011;51029;51.058;13.826;2023-03-01T05:23:04;26.10;;;18.37;;
64619;SDS011;51029;51.058;13.826;2023-03-01T05:25:31;32.47;;;20.30;;
64619;SDS011;51029;51.058;13.826;2023-03-01T05:27:58;26.77;;;19.37;;
64619;SDS011;51029;51.058;13.826;2023-03-01T05:30:24;26.67;;;19.53;;
64619;SDS011;51029;51.058;13.826;2023-03-01T05:32:50;26.47;;;19.57;;
64619;SDS011;51029;51.058;13.826;2023-03-01T05:35:20;38.20;;;25.37;;
64619;SDS011;51029;51.058;13.826;2023-03-01T05:37:47;72.20;;;40.07;;
64619;SDS011;51029;51.058;13.826;2023-03-01T05:40:15;27.40;;;20.10;;
64619;SDS011;51029;51.058;13.826;2023-03-01T05:42:43;26.83;;;19.23;;
64619;SDS011;51029;51.058;13.826;2023-03-01T05:45:10;28.73;;;18.17;;
64619;SDS011;51029;51.058;13.826;2023-03-01T05:47:37;25.67;;;18.37;;
64619;SDS011;51029;51.058;13.826;2023-03-01T05:50:03;26.20;;;18.80;;
64619;SDS011;51029;51.058;13.826;2023-03-01T05:52:29;23.93;;;18.37;;
64619;SDS011;51029;51.058;13.826;2023-03-01T05:54:54;26.77;;;18.00;;
64619;SDS011;51029;51.058;13.826;2023-03-01T05:57:20;28.63;;;19.13;;
64619;SDS011;51029;51.058;13.826;2023-03-01T05:59:45;25.63;;;19.27;;
64619;SDS011;51029;51.058;13.826;2023-03-01T06:02:11;27.07;;;18.93;;
64619;SDS011;51029;51.058;13.826;2023-03-01T06:04:36;26.67;;;19.63;;
64619;SDS011;51029;51.058;13.826;2023-03-01T06:07:02;27.90;;;18.53;;
64619;SDS011;51029;51.058;13.826;2023-03-01T06:09:27;23.03;;;17.13;;
64619;SDS011;51029;51.058;13.826;2023-03-01T06:11:53;29.17;;;18.33;;
64619;SDS011;51029;51.058;13.826;2023-03-01T06:14:18;25.83;;;18.77;;
64619;SDS011;51029;51.058;13.826;2023-03-01T06:16:45;28.63;;;19.27;;
64619;SDS011;51029;51.058;13.826;2023-03-01T06:19:11;25.67;;;18.90;;
64619;SDS011;51029;51.058;13.826;2023-03-01T06:21:36;25.40;;;18.03;;
64619;SDS011;51029;51.058;13.826;2023-03-01T06:24:02;25.57;;;16.93;;
64619;SDS011;51029;51.058;13.826;2023-03-01T06:26:27;23.57;;;17.40;;
64619;SDS011;51029;51.058;13.826;2023-03-01T06:28:53;28.20;;;18.70;;
64619;SDS011;51029;51.058;13.826;2023-03-01T06:31:18;26.47;;;18.03;;
64619;SDS011;51029;51.058;13.826;2023-03-01T06:33:44;27.93;;;19.40;;
64619;SDS011;51029;51.058;13.826;2023-03-01T06:36:09;27.97;;;19.57;;
64619;SDS011;51029;51.058;13.826;2023-03-01T06:38:35;29.03;;;19.50;;
64619;SDS011;51029;51.058;13.826;2023-03-01T06:41:01;28.23;;;19.50;;
64619;SDS011;51029;51.058;13.826;2023-03-01T06:43:26;28.23;;;18.80;;
64619;SDS011;51029;51.058;13.826;2023-03-01T06:45:52;24.93;;;19.30;;
64619;SDS011;51029;51.058;13.826;2023-03-01T06:48:17;31.70;;;20.40;;
64619;SDS011;51029;51.058;13.826;2023-03-01T06:50:43;30.13;;;21.17;;
64619;SDS011;51029;51.058;13.826;2023-03-01T06:53:09;33.33;;;22.00;;
64619;SDS011;51029;51.058;13.826;2023-03-01T06:55:34;34.47;;;21.80;;
64619;SDS011;51029;51.058;13.826;2023-03-01T06:58:00;32.70;;;22.57;;
64619;SDS011;51029;51.058;13.826;2023-03-01T07:00:26;31.47;;;22.43;;
64619;SDS011;51029;51.058;13.826;2023-03-01T07:02:52;30.03;;;21.80;;
64619;SDS011;51029;51.058;13.826;2023-03-01T07:05:18;30.70;;;22.83;;
64619;SDS011;51029;51.058;13.826;2023-03-01T07:07:44;29.00;;;20.97;;
64619;SDS011;51029;51.058;13.826;2023-03-01T07:10:09;29.27;;;22.10;;
64619;SDS011;51029;51.058;13.826;2023-03-01T07:12:36;28.57;;;20.07;;
64619;SDS011;51029;51.058;13.826;2023-03-01T07:15:01;30.83;;;21.57;;
64619;SDS011;51029;51.058;13.826;2023-03-01T07:17:27;30.03;;;22.90;;
64619;SDS011;51029;51.058;13.826;2023-03-01T07:19:52;33.13;;;22.63;;
64619;SDS011;51029;51.058;13.826;2023-03-01T07:22:18;34.43;;;23.97;;
64619;SDS011;51029;51.058;13.826;2023-03-01T07:24:43;34.13;;;23.03;;
64619;SDS011;51029;51.058;13.826;2023-03-01T07:27:09;34.47;;;23.87;;
64619;SDS011;51029;51.058;13.826;2023-03-01T07:29:35;32.90;;;24.57;;
64619;SDS011;51029;51.058;13.826;2023-03-01T07:32:04;34.90;;;25.27;;
64619;SDS011;51029;51.058;13.826;2023-03-01T07:34:31;37.33;;;25.87;;
64619;SDS011;51029;51.058;13.826;2023-03-01T07:36:57;54.70;;;33.60;;
64619;SDS011;51029;51.058;13.826;2023-03-01T07:39:22;36.23;;;25.70;;
64619;SDS011;51029;51.058;13.826;2023-03-01T07:41:48;38.73;;;26.23;;
64619;SDS011;51029;51.058;13.826;2023-03-01T07:44:14;41.70;;;26.97;;
64619;SDS011;51029;51.058;13.826;2023-03-01T07:46:41;40.47;;;26.37;;
64619;SDS011;51029;51.058;13.826;2023-03-01T07:49:06;38.37;;;26.47;;
64619;SDS011;51029;51.058;13.826;2023-03-01T07:51:32;35.13;;;25.07;;
64619;SDS011;51029;51.058;13.826;2023-03-01T07:53:57;36.17;;;25.20;;
64619;SDS011;51029;51.058;13.826;2023-03-01T07:56:23;35.70;;;25.43;;
64619;SDS011;51029;51.058;13.826;2023-03-01T07:58:48;39.13;;;26.37;;
64619;SDS011;51029;51.058;13.826;2023-03-01T08:01:15;35.07;;;25.63;;
64619;SDS011;51029;51.058;13.826;2023-03-01T08:03:42;39.60;;;26.07;;
64619;SDS011;51029;51.058;13.826;2023-03-01T08:06:09;32.53;;;23.67;;
64619;SDS011;51029;51.058;13.826;2023-03-01T08:08:35;35.80;;;25.13;;
64619;SDS011;51029;51.058;13.826;2023-03-01T08:11:02;35.00;;;25.50;;
64619;SDS011;51029;51.058;13.826;2023-03-01T08:13:29;34.03;;;24.63;;
64619;SDS011;51029;51.058;13.826;2023-03-01T08:16:00;34.10;;;24.27;;
64619;SDS011;51029;51.058;13.826;2023-03-01T08:18:27;32.20;;;23.20;;
64619;SDS011;51029;51.058;13.826;2023-03-01T08:20:53;33.20;;;25.13;;
64619;SDS011;51029;51.058;13.826;2023-03-01T08:23:18;32.13;;;24.17;;
64619;SDS011;51029;51.058;13.826;2023-03-01T08:25:44;33.37;;;24.50;;
64619;SDS011;51029;51.058;13.826;2023-03-01T08:28:09;31.73;;;24.30;;
64619;SDS011;51029;51.058;13.826;2023-03-01T08:30:35;31.03;;;24.33;;
64619;SDS011;51029;51.058;13.826;2023-03-01T08:33:00;33.83;;;23.87;;
64619;SDS011;51029;51.058;13.826;2023-03-01T08:35:26;30.53;;;24.23;;
64619;SDS011;51029;51.058;13.826;2023-03-01T08:37:51;29.50;;;23.50;;
64619;SDS011;51029;51.058;13.826;2023-03-01T08:40:17;33.13;;;24.23;;
64619;SDS011;51029;51.058;13.826;2023-03-01T08:42:42;31.60;;;24.03;;
64619;SDS011;51029;51.058;13.826;2023-03-01T08:45:08;33.53;;;22.90;;
64619;SDS011;51029;51.058;13.826;2023-03-01T08:47:34;32.57;;;22.87;;
64619;SDS011;51029;51.058;13.826;2023-03-01T08:50:01;31.30;;;23.97;;
64619;SDS011;51029;51.058;13.826;2023-03-01T08:52:26;28.07;;;21.97;;
64619;SDS011;51029;51.058;13.826;2023-03-01T08:54:52;30.17;;;23.00;;
64619;SDS011;51029;51.058;13.826;2023-03-01T08:57:18;30.63;;;23.83;;
64619;SDS011;51029;51.058;13.826;2023-03-01T08:59:43;29.73;;;22.33;;
64619;SDS011;51029;51.058;13.826;2023-03-01T09:02:13;30.17;;;23.27;;
64619;SDS011;51029;51.058;13.826;2023-03-01T09:04:41;30.07;;;22.60;;
64619;SDS011;51029;51.058;13.826;2023-03-01T09:07:06;32.30;;;22.87;;
64619;SDS011;51029;51.058;13.826;2023-03-01T09:09:32;35.70;;;24.00;;
64619;SDS011;51029;51.058;13.826;2023-03-01T09:11:58;31.17;;;23.37;;
64619;SDS011;51029;51.058;13.826;2023-03-01T09:14:23;33.33;;;22.57;;
64619;SDS011;51029;51.058;13.826;2023-03-01T09:16:49;28.93;;;21.97;;
64619;SDS011;51029;51.058;13.826;2023-03-01T09:19:15;31.10;;;23.63;;
64619;SDS011;51029;51.058;13.826;2023-03-01T09:21:41;35.70;;;22.30;;
64619;SDS011;51029;51.058;13.826;2023-03-01T09:24:16;29.73;;;22.07;;
64619;SDS011;51029;51.058;13.826;2023-03-01T09:26:44;33.93;;;23.43;;
64619;SDS011;51029;51.058;13.826;2023-03-01T09:29:11;35.10;;;23.90;;
64619;SDS011;51029;51.058;13.826;2023-03-01T09:31:37;33.83;;;24.17;;
64619;SDS011;51029;51.058;13.826;2023-03-01T09:34:03;31.80;;;23.13;;
64619;SDS011;51029;51.058;13.826;2023-03-01T09:36:29;29.37;;;22.30;;
64619;SDS011;51029;51.058;13.826;2023-03-01T09:38:55;33.40;;;22.20;;
64619;SDS011;51029;51.058;13.826;2023-03-01T09:41:26;28.90;;;22.17;;
64619;SDS011;51029;51.058;13.826;2023-03-01T09:44:00;28.93;;;21.83;;
64619;SDS011;51029;51.058;13.826;2023-03-01T09:46:42;32.50;;;21.77;;
64619;SDS011;51029;51.058;13.826;2023-03-01T09:49:19;29.37;;;21.50;;
64619;SDS011;51029;51.058;13.826;2023-03-01T09:54:46;25.57;;;21.03;;
64619;SDS011;51029;51.058;13.826;2023-03-01T09:58:04;28.50;;;21.17;;
64619;SDS011;51029;51.058;13.826;2023-03-01T10:00:24;28.90;;;22.40;;
64619;SDS011;51029;51.058;13.826;2023-03-01T10:13:55;23.67;;;20.93;;
64619;SDS011;51029;51.058;13.826;2023-03-01T10:16:34;31.47;;;20.23;;
64619;SDS011;51029;51.058;13.826;2023-03-01T10:22:05;21.27;;;18.97;;
64619;SDS011;51029;51.058;13.826;2023-03-01T10:24:38;25.43;;;19.90;;
64619;SDS011;51029;51.058;13.826;2023-03-01T10:27:05;26.40;;;19.10;;
64619;SDS011;51029;51.058;13.826;2023-03-01T10:29:38;29.73;;;22.87;;
64619;SDS011;51029;51.058;13.826;2023-03-01T10:32:08;21.27;;;18.83;;
64619;SDS011;51029;51.058;13.826;2023-03-01T10:34:36;26.03;;;19.27;;
64619;SDS011;51029;51.058;13.826;2023-03-01T10:37:09;26.17;;;18.90;;
64619;SDS011;51029;51.058;13.826;2023-03-01T10:42:30;26.97;;;17.70;;
64619;SDS011;51029;51.058;13.826;2023-03-01T10:44:58;18.87;;;16.87;;
64619;SDS011;51029;51.058;13.826;2023-03-01T10:47:40;19.60;;;15.43;;
64619;SDS011;51029;51.058;13.826;2023-03-01T10:50:22;21.33;;;16.13;;
64619;SDS011;51029;51.058;13.826;2023-03-01T10:52:55;23.57;;;17.40;;
64619;SDS011;51029;51.058;13.826;2023-03-01T10:55:30;22.20;;;16.23;;
64619;SDS011;51029;51.058;13.826;2023-03-01T10:58:16;20.77;;;16.87;;
64619;SDS011;51029;51.058;13.826;2023-03-01T11:00:48;19.30;;;16.53;;
64619;SDS011;51029;51.058;13.826;2023-03-01T11:03:18;25.77;;;17.37;;
64619;SDS011;51029;51.058;13.826;2023-03-01T11:05:51;28.97;;;18.47;;
64619;SDS011;51029;51.058;13.826;2023-03-01T11:08:28;26.80;;;17.37;;
64619;SDS011;51029;51.058;13.826;2023-03-01T11:13:39;27.33;;;19.00;;
64619;SDS011;51029;51.058;13.826;2023-03-01T11:16:15;31.57;;;20.13;;
64619;SDS011;51029;51.058;13.826;2023-03-01T11:18:55;22.63;;;16.93;;
64619;SDS011;51029;51.058;13.826;2023-03-01T11:21:25;17.37;;;14.93;;
64619;SDS011;51029;51.058;13.826;2023-03-01T11:23:54;24.50;;;16.53;;
64619;SDS011;51029;51.058;13.826;2023-03-01T11:26:20;24.83;;;16.00;;
64619;SDS011;51029;51.058;13.826;2023-03-01T11:28:49;22.43;;;16.17;;
64619;SDS011;51029;51.058;13.826;2023-03-01T11:31:19;19.73;;;14.97;;
64619;SDS011;51029;51.058;13.826;2023-03-01T11:34:09;16.03;;;13.47;;
64619;SDS011;51029;51.058;13.826;2023-03-01T11:36:44;15.27;;;13.33;;
64619;SDS011;51029;51.058;13.826;2023-03-01T11:39:42;18.13;;;13.20;;
64619;SDS011;51029;51.058;13.826;2023-03-01T11:42:20;26.50;;;15.77;;
64619;SDS011;51029;51.058;13.826;2023-03-01T11:44:54;18.60;;;14.57;;
64619;SDS011;51029;51.058;13.826;2023-03-01T11:47:42;17.77;;;13.47;;
64619;SDS011;51029;51.058;13.826;2023-03-01T11:50:14;19.57;;;13.60;;
64619;SDS011;51029;51.058;13.826;2023-03-01T11:52:56;20.33;;;14.37;;
64619;SDS011;51029;51.058;13.826;2023-03-01T11:55:50;20.07;;;13.50;;
64619;SDS011;51029;51.058;13.826;2023-03-01T11:58:52;15.63;;;13.30;;
64619;SDS011;51029;51.058;13.826;2023-03-01T12:01:44;19.90;;;14.77;;
64619;SDS011;51029;51.058;13.826;2023-03-01T12:04:30;17.50;;;15.07;;
64619;SDS011;51029;51.058;13.826;2023-03-01T12:07:20;19.10;;;15.47;;
64619;SDS011;51029;51.058;13.826;2023-03-01T12:21:35;24.17;;;17.53;;
64619;SDS011;51029;51.058;13.826;2023-03-01T12:24:15;30.73;;;23.83;;
64619;SDS011;51029;51.058;13.826;2023-03-01T12:32:58;23.47;;;18.13;;
64619;SDS011;51029;51.058;13.826;2023-03-01T12:49:34;21.07;;;18.93;;
64619;SDS011;51029;51.058;13.826;2023-03-01T12:52:16;20.47;;;18.23;;
64619;SDS011;51029;51.058;13.826;2023-03-01T12:54:44;21.13;;;18.17;;
64619;SDS011;51029;51.058;13.826;2023-03-01T12:57:15;29.77;;;19.13;;
64619;SDS011;51029;51.058;13.826;2023-03-01T13:02:47;19.43;;;17.33;;
64619;SDS011;51029;51.058;13.826;2023-03-01T13:05:56;20.63;;;18.53;;
64619;SDS011;51029;51.058;13.826;2023-03-01T13:08:40;23.07;;;17.87;;
64619;SDS011;51029;51.058;13.826;2023-03-01T13:11:18;21.13;;;18.33;;
64619;SDS011;51029;51.058;13.826;2023-03-01T13:13:46;22.80;;;19.70;;
64619;SDS011;51029;51.058;13.826;2023-03-01T13:19:08;22.53;;;19.27;;
64619;SDS011;51029;51.058;13.826;2023-03-01T13:21:39;24.77;;;19.70;;
64619;SDS011;51029;51.058;13.826;2023-03-01T13:24:22;22.20;;;19.30;;
64619;SDS011;51029;51.058;13.826;2023-03-01T13:29:32;24.27;;;19.20;;
64619;SDS011;51029;51.058;13.826;2023-03-01T13:32:18;21.90;;;19.13;;
64619;SDS011;51029;51.058;13.826;2023-03-01T13:34:45;34.73;;;26.20;;
64619;SDS011;51029;51.058;13.826;2023-03-01T13:37:23;24.43;;;19.80;;
64619;SDS011;51029;51.058;13.826;2023-03-01T13:39:51;23.27;;;18.63;;
64619;SDS011;51029;51.058;13.826;2023-03-01T13:45:26;22.13;;;19.73;;
64619;SDS011;51029;51.058;13.826;2023-03-01T13:47:58;20.33;;;18.13;;
64619;SDS011;51029;51.058;13.826;2023-03-01T13:51:09;27.27;;;18.20;;
64619;SDS011;51029;51.058;13.826;2023-03-01T13:53:40;20.80;;;18.47;;
64619;SDS011;51029;51.058;13.826;2023-03-01T13:56:25;24.10;;;18.70;;
64619;SDS011;51029;51.058;13.826;2023-03-01T14:01:34;20.93;;;18.50;;
64619;SDS011;51029;51.058;13.826;2023-03-01T14:04:01;23.63;;;18.97;;
64619;SDS011;51029;51.058;13.826;2023-03-01T14:06:28;20.73;;;18.53;;
64619;SDS011;51029;51.058;13.826;2023-03-01T14:09:03;26.53;;;19.40;;
64619;SDS011;51029;51.058;13.826;2023-03-01T14:14:38;19.47;;;17.37;;
64619;SDS011;51029;51.058;13.826;2023-03-01T14:17:12;18.93;;;16.93;;
64619;SDS011;51029;51.058;13.826;2023-03-01T14:20:00;20.77;;;17.63;;
64619;SDS011;51029;51.058;13.826;2023-03-01T14:22:33;21.37;;;18.13;;
64619;SDS011;51029;51.058;13.826;2023-03-01T14:25:01;27.10;;;18.57;;
64619;SDS011;51029;51.058;13.826;2023-03-01T14:27:35;19.87;;;17.77;;
64619;SDS011;51029;51.058;13.826;2023-03-01T14:30:09;25.17;;;18.20;;
64619;SDS011;51029;51.058;13.826;2023-03-01T14:32:39;20.20;;;18.13;;
64619;SDS011;51029;51.058;13.826;2023-03-01T14:35:24;20.27;;;18.13;;
64619;SDS011;51029;51.058;13.826;2023-03-01T14:37:51;19.80;;;17.73;;
64619;SDS011;51029;51.058;13.826;2023-03-01T14:42:52;20.10;;;18.00;;
64619;SDS011;51029;51.058;13.826;2023-03-01T14:45:19;21.23;;;17.80;;
64619;SDS011;51029;51.058;13.826;2023-03-01T14:47:45;19.33;;;16.60;;
64619;SDS011;51029;51.058;13.826;2023-03-01T14:52:58;19.10;;;17.10;;
64619;SDS011;51029;51.058;13.826;2023-03-01T14:55:27;19.50;;;17.00;;
64619;SDS011;51029;51.058;13.826;2023-03-01T14:57:56;21.70;;;17.33;;
64619;SDS011;51029;51.058;13.826;2023-03-01T15:00:29;17.87;;;15.93;;
64619;SDS011;51029;51.058;13.826;2023-03-01T15:02:58;18.20;;;16.30;;
64619;SDS011;51029;51.058;13.826;2023-03-01T15:05:29;24.60;;;16.70;;
64619;SDS011;51029;51.058;13.826;2023-03-01T15:07:57;18.03;;;16.13;;
64619;SDS011;51029;51.058;13.826;2023-03-01T15:10:26;20.13;;;16.40;;
64619;SDS011;51029;51.058;13.826;2023-03-01T15:13:10;18.33;;;15.77;;
64619;SDS011;51029;51.058;13.826;2023-03-01T15:15:46;23.00;;;16.70;;
64619;SDS011;51029;51.058;13.826;2023-03-01T15:20:41;22.37;;;16.00;;
64619;SDS011;51029;51.058;13.826;2023-03-01T15:23:16;20.07;;;15.13;;
64619;SDS011;51029;51.058;13.826;2023-03-01T15:25:45;21.03;;;15.97;;
64619;SDS011;51029;51.058;13.826;2023-03-01T15:28:12;21.20;;;15.53;;
64619;SDS011;51029;51.058;13.826;2023-03-01T15:30:45;20.37;;;14.90;;
64619;SDS011;51029;51.058;13.826;2023-03-01T15:33:31;27.13;;;19.20;;
64619;SDS011;51029;51.058;13.826;2023-03-01T15:36:46;20.73;;;16.17;;
64619;SDS011;51029;51.058;13.826;2023-03-01T15:38:56;20.73;;;15.67;;
64619;SDS011;51029;51.058;13.826;2023-03-01T15:43:55;21.80;;;15.50;;
64619;SDS011;51029;51.058;13.826;2023-03-01T15:46:31;18.20;;;15.13;;
64619;SDS011;51029;51.058;13.826;2023-03-01T15:49:02;17.20;;;14.60;;
64619;SDS011;51029;51.058;13.826;2023-03-01T15:51:50;20.63;;;15.03;;